sensor_id;sensor_type;location;lat;lon;timestamp;temperature;humidity
47336;DHT22;33068;51.990;5.926;2022-10-04T00:02:06;11.30;99.90
47336;DHT22;33068;51.990;5.926;2022-10-04T00:04:46;11.30;99.90
47336;DHT22;33068;51.990;5.926;2022-10-04T00:07:21;11.30;99.90
47336;DHT22;33068;51.990;5.926;2022-10-04T00:09:54;11.30;99.90
47336;DHT22;33068;51.990;5.926;2022-10-04T00:12:24;11.30;99.90
47336;DHT22;33068;51.990;5.926;2022-10-04T00:14:55;11.30;99.90
47336;DHT22;33068;51.990;5.926;2022-10-04T00:17:26;11.30;99.90
47336;DHT22;33068;51.990;5.926;2022-10-04T00:19:55;11.30;99.90
47336;DHT22;33068;51.990;5.926;2022-10-04T00:22:25;11.30;99.90
47336;DHT22;33068;51.990;5.926;2022-10-04T00:25:20;11.20;99.90
47336;DHT22;33068;51.990;5.926;2022-10-04T00:28:30;11.20;99.90
47336;DHT22;33068;51.990;5.926;2022-10-04T00:31:19;11.30;99.90
47336;DHT22;33068;51.990;5.926;2022-10-04T00:33:48;11.20;99.90
47336;DHT22;33068;51.990;5.926;2022-10-04T00:36:43;11.20;99.90
47336;DHT22;33068;51.990;5.926;2022-10-04T00:42:02;11.30;99.90
47336;DHT22;33068;51.990;5.926;2022-10-04T00:44:40;11.30;99.90
47336;DHT22;33068;51.990;5.926;2022-10-04T00:47:20;11.30;99.90
47336;DHT22;33068;51.990;5.926;2022-10-04T00:49:52;11.30;99.90
47336;DHT22;33068;51.990;5.926;2022-10-04T00:52:24;11.20;99.90
47336;DHT22;33068;51.990;5.926;2022-10-04T00:54:56;11.20;99.90
47336;DHT22;33068;51.990;5.926;2022-10-04T00:57:27;11.20;99.90
47336;DHT22;33068;51.990;5.926;2022-10-04T00:59:58;11.20;99.90
47336;DHT22;33068;51.990;5.926;2022-10-04T01:02:32;11.10;99.90
47336;DHT22;33068;51.990;5.926;2022-10-04T01:05:04;11.10;99.90
47336;DHT22;33068;51.990;5.926;2022-10-04T01:07:34;11.00;99.90
47336;DHT22;33068;51.990;5.926;2022-10-04T01:10:09;11.00;99.90
47336;DHT22;33068;51.990;5.926;2022-10-04T01:12:44;11.10;99.90
47336;DHT22;33068;51.990;5.926;2022-10-04T01:15:15;11.10;99.90
47336;DHT22;33068;51.990;5.926;2022-10-04T01:18:06;11.10;99.90
47336;DHT22;33068;51.990;5.926;2022-10-04T01:20:34;11.10;99.90
47336;DHT22;33068;51.990;5.926;2022-10-04T01:23:07;11.10;99.90
47336;DHT22;33068;51.990;5.926;2022-10-04T01:25:47;11.10;99.90
47336;DHT22;33068;51.990;5.926;2022-10-04T01:28:14;11.10;99.90
47336;DHT22;33068;51.990;5.926;2022-10-04T01:30:42;11.00;99.90
47336;DHT22;33068;51.990;5.926;2022-10-04T01:33:11;11.30;99.90
47336;DHT22;33068;51.990;5.926;2022-10-04T01:35:39;11.10;99.90
47336;DHT22;33068;51.990;5.926;2022-10-04T01:38:08;11.10;99.90
47336;DHT22;33068;51.990;5.926;2022-10-04T01:40:41;11.00;99.90
47336;DHT22;33068;51.990;5.926;2022-10-04T01:43:13;11.10;99.90
47336;DHT22;33068;51.990;5.926;2022-10-04T01:45:44;11.10;99.90
47336;DHT22;33068;51.990;5.926;2022-10-04T01:48:15;11.00;99.90
47336;DHT22;33068;51.990;5.926;2022-10-04T01:50:46;11.00;99.90
47336;DHT22;33068;51.990;5.926;2022-10-04T01:53:20;11.00;99.90
47336;DHT22;33068;51.990;5.926;2022-10-04T01:55:52;11.00;99.90
47336;DHT22;33068;51.990;5.926;2022-10-04T01:58:23;10.90;99.90
47336;DHT22;33068;51.990;5.926;2022-10-04T02:00:56;10.90;99.90
47336;DHT22;33068;51.990;5.926;2022-10-04T02:03:29;10.90;99.90
47336;DHT22;33068;51.990;5.926;2022-10-04T02:06:00;10.80;99.90
47336;DHT22;33068;51.990;5.926;2022-10-04T02:08:32;10.80;99.90
47336;DHT22;33068;51.990;5.926;2022-10-04T02:11:00;10.70;99.90
47336;DHT22;33068;51.990;5.926;2022-10-04T02:13:35;10.80;99.90
47336;DHT22;33068;51.990;5.926;2022-10-04T02:16:08;10.80;99.90
47336;DHT22;33068;51.990;5.926;2022-10-04T02:18:37;10.90;99.90
47336;DHT22;33068;51.990;5.926;2022-10-04T02:21:06;10.90;99.90
47336;DHT22;33068;51.990;5.926;2022-10-04T02:23:36;10.90;99.90
47336;DHT22;33068;51.990;5.926;2022-10-04T02:26:04;11.00;99.90
47336;DHT22;33068;51.990;5.926;2022-10-04T02:28:31;11.00;99.90
47336;DHT22;33068;51.990;5.926;2022-10-04T02:30:59;11.00;99.90
47336;DHT22;33068;51.990;5.926;2022-10-04T02:33:45;11.00;99.90
47336;DHT22;33068;51.990;5.926;2022-10-04T02:36:13;10.90;99.90
47336;DHT22;33068;51.990;5.926;2022-10-04T02:38:46;10.90;99.90
47336;DHT22;33068;51.990;5.926;2022-10-04T02:41:20;10.90;99.90
47336;DHT22;33068;51.990;5.926;2022-10-04T02:43:54;10.90;99.90
47336;DHT22;33068;51.990;5.926;2022-10-04T02:46:24;10.70;99.90
47336;DHT22;33068;51.990;5.926;2022-10-04T02:48:55;10.80;99.90
47336;DHT22;33068;51.990;5.926;2022-10-04T02:51:25;10.70;99.90
47336;DHT22;33068;51.990;5.926;2022-10-04T02:54:03;10.70;99.90
47336;DHT22;33068;51.990;5.926;2022-10-04T02:56:32;10.70;99.90
47336;DHT22;33068;51.990;5.926;2022-10-04T02:59:03;10.60;99.90
47336;DHT22;33068;51.990;5.926;2022-10-04T03:01:47;10.60;99.90
47336;DHT22;33068;51.990;5.926;2022-10-04T03:04:15;10.60;99.90
47336;DHT22;33068;51.990;5.926;2022-10-04T03:06:43;10.60;99.90
47336;DHT22;33068;51.990;5.926;2022-10-04T03:09:13;10.50;99.90
47336;DHT22;33068;51.990;5.926;2022-10-04T03:11:41;10.50;99.90
47336;DHT22;33068;51.990;5.926;2022-10-04T03:14:13;10.50;99.90
47336;DHT22;33068;51.990;5.926;2022-10-04T03:16:43;10.50;99.90
47336;DHT22;33068;51.990;5.926;2022-10-04T03:19:12;10.50;99.90
47336;DHT22;33068;51.990;5.926;2022-10-04T03:21:43;10.50;99.90
47336;DHT22;33068;51.990;5.926;2022-10-04T03:24:17;10.50;99.90
47336;DHT22;33068;51.990;5.926;2022-10-04T03:26:47;10.50;99.90
47336;DHT22;33068;51.990;5.926;2022-10-04T03:29:17;10.40;99.90
47336;DHT22;33068;51.990;5.926;2022-10-04T03:31:46;10.40;99.90
47336;DHT22;33068;51.990;5.926;2022-10-04T03:34:15;10.40;99.90
47336;DHT22;33068;51.990;5.926;2022-10-04T03:36:43;10.30;99.90
47336;DHT22;33068;51.990;5.926;2022-10-04T03:39:18;10.20;99.90
47336;DHT22;33068;51.990;5.926;2022-10-04T03:41:48;10.10;99.90
47336;DHT22;33068;51.990;5.926;2022-10-04T03:44:17;10.10;99.90
47336;DHT22;33068;51.990;5.926;2022-10-04T03:46:45;10.00;99.90
47336;DHT22;33068;51.990;5.926;2022-10-04T03:49:17;10.00;99.90
47336;DHT22;33068;51.990;5.926;2022-10-04T03:51:48;10.00;99.90
47336;DHT22;33068;51.990;5.926;2022-10-04T03:54:21;10.00;99.90
47336;DHT22;33068;51.990;5.926;2022-10-04T03:56:50;10.00;99.90
47336;DHT22;33068;51.990;5.926;2022-10-04T03:59:19;10.10;99.90
47336;DHT22;33068;51.990;5.926;2022-10-04T04:01:48;9.90;99.90
47336;DHT22;33068;51.990;5.926;2022-10-04T04:04:20;9.90;99.90
47336;DHT22;33068;51.990;5.926;2022-10-04T04:06:53;9.80;99.90
47336;DHT22;33068;51.990;5.926;2022-10-04T04:09:35;9.70;99.90
47336;DHT22;33068;51.990;5.926;2022-10-04T04:12:08;9.70;99.90
47336;DHT22;33068;51.990;5.926;2022-10-04T04:14:38;9.60;99.90
47336;DHT22;33068;51.990;5.926;2022-10-04T04:17:32;9.60;99.90
47336;DHT22;33068;51.990;5.926;2022-10-04T04:20:05;9.60;99.90
47336;DHT22;33068;51.990;5.926;2022-10-04T04:22:34;9.60;99.90
47336;DHT22;33068;51.990;5.926;2022-10-04T04:25:06;9.60;99.90
47336;DHT22;33068;51.990;5.926;2022-10-04T04:27:38;9.50;99.90
47336;DHT22;33068;51.990;5.926;2022-10-04T04:30:06;9.50;99.90
47336;DHT22;33068;51.990;5.926;2022-10-04T04:32:37;9.40;99.90
47336;DHT22;33068;51.990;5.926;2022-10-04T04:35:20;9.30;99.90
47336;DHT22;33068;51.990;5.926;2022-10-04T04:38:05;9.20;99.90
47336;DHT22;33068;51.990;5.926;2022-10-04T04:40:34;9.20;99.90
47336;DHT22;33068;51.990;5.926;2022-10-04T04:43:02;9.20;99.90
47336;DHT22;33068;51.990;5.926;2022-10-04T04:45:31;9.10;99.90
47336;DHT22;33068;51.990;5.926;2022-10-04T04:48:00;9.10;99.90
47336;DHT22;33068;51.990;5.926;2022-10-04T04:50:31;9.10;99.90
47336;DHT22;33068;51.990;5.926;2022-10-04T04:53:06;9.30;99.90
47336;DHT22;33068;51.990;5.926;2022-10-04T04:55:39;9.00;99.90
47336;DHT22;33068;51.990;5.926;2022-10-04T04:58:09;9.00;99.90
47336;DHT22;33068;51.990;5.926;2022-10-04T05:00:49;9.00;99.90
47336;DHT22;33068;51.990;5.926;2022-10-04T05:03:20;8.90;99.90
47336;DHT22;33068;51.990;5.926;2022-10-04T05:05:47;8.90;99.90
47336;DHT22;33068;51.990;5.926;2022-10-04T05:08:18;9.00;99.90
47336;DHT22;33068;51.990;5.926;2022-10-04T05:10:53;9.00;99.90
47336;DHT22;33068;51.990;5.926;2022-10-04T05:13:32;8.90;99.90
47336;DHT22;33068;51.990;5.926;2022-10-04T05:16:02;8.90;99.90
47336;DHT22;33068;51.990;5.926;2022-10-04T05:18:31;8.80;99.90
47336;DHT22;33068;51.990;5.926;2022-10-04T05:21:04;8.80;99.90
47336;DHT22;33068;51.990;5.926;2022-10-04T05:23:33;8.80;99.90
47336;DHT22;33068;51.990;5.926;2022-10-04T05:26:03;8.80;99.90
47336;DHT22;33068;51.990;5.926;2022-10-04T05:28:32;8.80;99.90
47336;DHT22;33068;51.990;5.926;2022-10-04T05:31:28;8.90;99.90
47336;DHT22;33068;51.990;5.926;2022-10-04T05:33:58;8.70;99.90
47336;DHT22;33068;51.990;5.926;2022-10-04T05:36:43;8.70;99.90
47336;DHT22;33068;51.990;5.926;2022-10-04T05:39:21;8.70;99.90
47336;DHT22;33068;51.990;5.926;2022-10-04T05:42:01;8.60;99.90
47336;DHT22;33068;51.990;5.926;2022-10-04T05:44:36;8.60;99.90
47336;DHT22;33068;51.990;5.926;2022-10-04T05:47:11;8.60;99.90
47336;DHT22;33068;51.990;5.926;2022-10-04T05:49:41;8.60;99.90
47336;DHT22;33068;51.990;5.926;2022-10-04T05:52:14;8.60;99.90
47336;DHT22;33068;51.990;5.926;2022-10-04T05:54:42;8.50;99.90
47336;DHT22;33068;51.990;5.926;2022-10-04T05:57:34;8.60;99.90
47336;DHT22;33068;51.990;5.926;2022-10-04T06:00:12;8.50;99.90
47336;DHT22;33068;51.990;5.926;2022-10-04T06:03:03;8.60;99.90
47336;DHT22;33068;51.990;5.926;2022-10-04T06:05:43;8.70;99.90
47336;DHT22;33068;51.990;5.926;2022-10-04T06:08:22;8.90;99.90
47336;DHT22;33068;51.990;5.926;2022-10-04T06:11:01;9.00;99.90
47336;DHT22;33068;51.990;5.926;2022-10-04T06:13:57;9.00;99.90
47336;DHT22;33068;51.990;5.926;2022-10-04T06:16:38;9.00;99.90
47336;DHT22;33068;51.990;5.926;2022-10-04T06:19:26;9.00;99.90
47336;DHT22;33068;51.990;5.926;2022-10-04T06:22:15;8.90;99.90
47336;DHT22;33068;51.990;5.926;2022-10-04T06:24:46;8.90;99.90
47336;DHT22;33068;51.990;5.926;2022-10-04T06:27:18;8.80;99.90
47336;DHT22;33068;51.990;5.926;2022-10-04T06:29:50;8.80;99.90
47336;DHT22;33068;51.990;5.926;2022-10-04T06:32:46;8.80;99.90
47336;DHT22;33068;51.990;5.926;2022-10-04T06:35:40;8.80;99.90
47336;DHT22;33068;51.990;5.926;2022-10-04T06:38:28;9.00;99.90
47336;DHT22;33068;51.990;5.926;2022-10-04T06:41:24;8.90;99.90
47336;DHT22;33068;51.990;5.926;2022-10-04T06:44:06;8.90;99.90
47336;DHT22;33068;51.990;5.926;2022-10-04T06:46:44;8.90;99.90
47336;DHT22;33068;51.990;5.926;2022-10-04T06:49:31;9.00;99.90
47336;DHT22;33068;51.990;5.926;2022-10-04T06:55:19;9.20;99.90
47336;DHT22;33068;51.990;5.926;2022-10-04T06:58:14;9.00;99.90
47336;DHT22;33068;51.990;5.926;2022-10-04T07:00:50;9.00;99.90
47336;DHT22;33068;51.990;5.926;2022-10-04T07:03:24;9.00;99.90
47336;DHT22;33068;51.990;5.926;2022-10-04T07:05:56;9.00;99.90
47336;DHT22;33068;51.990;5.926;2022-10-04T07:08:32;9.00;99.90
47336;DHT22;33068;51.990;5.926;2022-10-04T07:11:05;9.00;99.90
47336;DHT22;33068;51.990;5.926;2022-10-04T07:13:42;9.00;99.90
47336;DHT22;33068;51.990;5.926;2022-10-04T07:16:28;9.20;99.90
47336;DHT22;33068;51.990;5.926;2022-10-04T07:19:10;9.00;99.90
47336;DHT22;33068;51.990;5.926;2022-10-04T07:21:49;9.00;99.90
47336;DHT22;33068;51.990;5.926;2022-10-04T07:24:22;9.10;99.90
47336;DHT22;33068;51.990;5.926;2022-10-04T07:26:52;9.20;99.90
47336;DHT22;33068;51.990;5.926;2022-10-04T07:29:23;9.20;99.90
47336;DHT22;33068;51.990;5.926;2022-10-04T07:32:01;9.20;99.90
47336;DHT22;33068;51.990;5.926;2022-10-04T07:34:33;9.30;99.90
47336;DHT22;33068;51.990;5.926;2022-10-04T07:37:07;9.60;99.90
47336;DHT22;33068;51.990;5.926;2022-10-04T07:39:42;9.40;99.90
47336;DHT22;33068;51.990;5.926;2022-10-04T07:42:13;9.50;99.90
47336;DHT22;33068;51.990;5.926;2022-10-04T07:44:45;9.50;99.90
47336;DHT22;33068;51.990;5.926;2022-10-04T07:47:19;9.60;99.90
47336;DHT22;33068;51.990;5.926;2022-10-04T07:49:48;9.70;99.90
47336;DHT22;33068;51.990;5.926;2022-10-04T07:52:42;9.90;99.90
47336;DHT22;33068;51.990;5.926;2022-10-04T07:55:20;10.00;99.90
47336;DHT22;33068;51.990;5.926;2022-10-04T07:57:55;10.10;99.90
47336;DHT22;33068;51.990;5.926;2022-10-04T08:00:26;10.20;99.90
47336;DHT22;33068;51.990;5.926;2022-10-04T08:03:09;10.20;99.90
47336;DHT22;33068;51.990;5.926;2022-10-04T08:05:42;10.20;99.90
47336;DHT22;33068;51.990;5.926;2022-10-04T08:08:26;10.20;99.90
47336;DHT22;33068;51.990;5.926;2022-10-04T08:11:12;10.30;99.90
47336;DHT22;33068;51.990;5.926;2022-10-04T08:13:51;10.40;99.90
47336;DHT22;33068;51.990;5.926;2022-10-04T08:16:33;10.40;99.90
47336;DHT22;33068;51.990;5.926;2022-10-04T08:19:26;10.50;99.90
47336;DHT22;33068;51.990;5.926;2022-10-04T08:22:10;10.60;99.90
47336;DHT22;33068;51.990;5.926;2022-10-04T08:24:52;10.70;99.90
47336;DHT22;33068;51.990;5.926;2022-10-04T08:27:39;10.80;99.90
47336;DHT22;33068;51.990;5.926;2022-10-04T08:33:27;11.10;99.90
47336;DHT22;33068;51.990;5.926;2022-10-04T08:36:10;11.20;99.90
47336;DHT22;33068;51.990;5.926;2022-10-04T08:38:51;11.40;99.90
47336;DHT22;33068;51.990;5.926;2022-10-04T08:48:15;11.80;99.90
47336;DHT22;33068;51.990;5.926;2022-10-04T08:54:25;12.10;99.90
47336;DHT22;33068;51.990;5.926;2022-10-04T08:57:18;12.50;99.90
47336;DHT22;33068;51.990;5.926;2022-10-04T09:00:13;12.90;99.90
47336;DHT22;33068;51.990;5.926;2022-10-04T09:03:14;12.90;99.90
47336;DHT22;33068;51.990;5.926;2022-10-04T09:05:55;12.90;99.90
47336;DHT22;33068;51.990;5.926;2022-10-04T09:12:03;12.90;99.90
47336;DHT22;33068;51.990;5.926;2022-10-04T09:14:52;12.90;99.90
47336;DHT22;33068;51.990;5.926;2022-10-04T09:17:28;13.10;99.90
47336;DHT22;33068;51.990;5.926;2022-10-04T09:20:09;13.20;99.90
47336;DHT22;33068;51.990;5.926;2022-10-04T09:22:47;13.30;99.90
47336;DHT22;33068;51.990;5.926;2022-10-04T09:25:34;13.40;99.90
47336;DHT22;33068;51.990;5.926;2022-10-04T09:28:32;13.50;99.90
47336;DHT22;33068;51.990;5.926;2022-10-04T09:31:43;13.60;99.90
47336;DHT22;33068;51.990;5.926;2022-10-04T09:34:31;14.00;99.90
47336;DHT22;33068;51.990;5.926;2022-10-04T09:37:14;14.50;99.90
47336;DHT22;33068;51.990;5.926;2022-10-04T09:40:02;14.90;99.90
47336;DHT22;33068;51.990;5.926;2022-10-04T09:42:49;15.20;99.90
47336;DHT22;33068;51.990;5.926;2022-10-04T09:48:33;15.50;99.90
47336;DHT22;33068;51.990;5.926;2022-10-04T09:51:24;15.60;99.90
47336;DHT22;33068;51.990;5.926;2022-10-04T09:56:57;15.90;99.90
47336;DHT22;33068;51.990;5.926;2022-10-04T09:59:42;15.90;99.90
47336;DHT22;33068;51.990;5.926;2022-10-04T10:05:37;16.10;99.90
47336;DHT22;33068;51.990;5.926;2022-10-04T10:08:15;16.20;99.90
47336;DHT22;33068;51.990;5.926;2022-10-04T10:10:55;16.00;99.90
47336;DHT22;33068;51.990;5.926;2022-10-04T10:16:55;16.40;99.90
47336;DHT22;33068;51.990;5.926;2022-10-04T10:19:54;16.50;99.90
47336;DHT22;33068;51.990;5.926;2022-10-04T10:25:39;17.00;99.90
47336;DHT22;33068;51.990;5.926;2022-10-04T10:28:29;17.00;99.90
47336;DHT22;33068;51.990;5.926;2022-10-04T10:31:16;17.00;99.90
47336;DHT22;33068;51.990;5.926;2022-10-04T10:34:19;17.10;99.90
47336;DHT22;33068;51.990;5.926;2022-10-04T10:37:01;17.20;99.90
47336;DHT22;33068;51.990;5.926;2022-10-04T10:39:59;17.30;99.90
47336;DHT22;33068;51.990;5.926;2022-10-04T10:42:43;17.60;99.90
47336;DHT22;33068;51.990;5.926;2022-10-04T10:45:31;17.70;99.90
47336;DHT22;33068;51.990;5.926;2022-10-04T10:48:05;17.90;99.90
47336;DHT22;33068;51.990;5.926;2022-10-04T10:50:53;17.90;99.90
47336;DHT22;33068;51.990;5.926;2022-10-04T10:56:41;17.90;99.90
47336;DHT22;33068;51.990;5.926;2022-10-04T11:02:42;18.00;99.90
47336;DHT22;33068;51.990;5.926;2022-10-04T11:05:42;18.20;99.90
47336;DHT22;33068;51.990;5.926;2022-10-04T11:11:34;18.50;99.90
47336;DHT22;33068;51.990;5.926;2022-10-04T11:14:28;18.60;99.90
47336;DHT22;33068;51.990;5.926;2022-10-04T11:17:12;18.30;99.90
47336;DHT22;33068;51.990;5.926;2022-10-04T11:26:23;18.70;99.90
47336;DHT22;33068;51.990;5.926;2022-10-04T11:29:11;18.90;99.90
47336;DHT22;33068;51.990;5.926;2022-10-04T11:32:21;19.20;99.90
47336;DHT22;33068;51.990;5.926;2022-10-04T11:38:09;19.00;99.90
47336;DHT22;33068;51.990;5.926;2022-10-04T11:40:43;18.90;99.90
47336;DHT22;33068;51.990;5.926;2022-10-04T11:43:32;18.80;99.90
47336;DHT22;33068;51.990;5.926;2022-10-04T11:46:12;18.80;99.90
47336;DHT22;33068;51.990;5.926;2022-10-04T11:48:52;19.00;99.90
47336;DHT22;33068;51.990;5.926;2022-10-04T11:51:48;18.90;99.90
47336;DHT22;33068;51.990;5.926;2022-10-04T11:54:39;19.10;99.90
47336;DHT22;33068;51.990;5.926;2022-10-04T11:57:33;19.20;99.90
47336;DHT22;33068;51.990;5.926;2022-10-04T12:00:10;19.30;99.90
47336;DHT22;33068;51.990;5.926;2022-10-04T12:03:22;19.40;99.90
47336;DHT22;33068;51.990;5.926;2022-10-04T12:06:13;19.50;99.90
47336;DHT22;33068;51.990;5.926;2022-10-04T12:08:53;19.40;99.90
47336;DHT22;33068;51.990;5.926;2022-10-04T12:15:10;19.10;99.90
47336;DHT22;33068;51.990;5.926;2022-10-04T12:21:18;19.20;99.90
47336;DHT22;33068;51.990;5.926;2022-10-04T12:23:59;19.30;99.90
47336;DHT22;33068;51.990;5.926;2022-10-04T12:27:13;19.30;99.90
47336;DHT22;33068;51.990;5.926;2022-10-04T12:30:20;19.40;99.90
47336;DHT22;33068;51.990;5.926;2022-10-04T12:33:00;19.20;99.90
47336;DHT22;33068;51.990;5.926;2022-10-04T12:35:39;19.10;99.90
47336;DHT22;33068;51.990;5.926;2022-10-04T12:41:34;19.10;99.90
47336;DHT22;33068;51.990;5.926;2022-10-04T12:44:16;19.50;99.90
47336;DHT22;33068;51.990;5.926;2022-10-04T12:46:59;19.40;99.90
47336;DHT22;33068;51.990;5.926;2022-10-04T12:49:39;19.40;99.90
47336;DHT22;33068;51.990;5.926;2022-10-04T12:52:14;19.70;99.90
47336;DHT22;33068;51.990;5.926;2022-10-04T12:54:45;19.90;99.90
47336;DHT22;33068;51.990;5.926;2022-10-04T12:57:25;20.40;99.10
47336;DHT22;33068;51.990;5.926;2022-10-04T13:00:04;20.40;98.80
47336;DHT22;33068;51.990;5.926;2022-10-04T13:05:52;20.00;97.90
47336;DHT22;33068;51.990;5.926;2022-10-04T13:08:28;19.70;99.50
47336;DHT22;33068;51.990;5.926;2022-10-04T13:11:16;19.70;99.20
47336;DHT22;33068;51.990;5.926;2022-10-04T13:14:02;19.90;98.50
47336;DHT22;33068;51.990;5.926;2022-10-04T13:16:40;20.30;97.80
47336;DHT22;33068;51.990;5.926;2022-10-04T13:19:17;20.40;95.70
47336;DHT22;33068;51.990;5.926;2022-10-04T13:22:05;20.30;96.20
47336;DHT22;33068;51.990;5.926;2022-10-04T13:24:43;20.20;96.50
47336;DHT22;33068;51.990;5.926;2022-10-04T13:27:33;20.20;95.80
47336;DHT22;33068;51.990;5.926;2022-10-04T13:30:13;20.20;95.80
47336;DHT22;33068;51.990;5.926;2022-10-04T13:32:45;20.30;96.60
47336;DHT22;33068;51.990;5.926;2022-10-04T13:35:19;20.20;94.40
47336;DHT22;33068;51.990;5.926;2022-10-04T13:38:12;20.40;94.80
47336;DHT22;33068;51.990;5.926;2022-10-04T13:40:57;20.40;95.90
47336;DHT22;33068;51.990;5.926;2022-10-04T13:43:52;20.10;95.80
47336;DHT22;33068;51.990;5.926;2022-10-04T13:46:29;20.20;95.20
47336;DHT22;33068;51.990;5.926;2022-10-04T13:49:16;19.90;95.70
47336;DHT22;33068;51.990;5.926;2022-10-04T13:51:58;20.00;95.90
47336;DHT22;33068;51.990;5.926;2022-10-04T13:55:06;19.80;98.00
47336;DHT22;33068;51.990;5.926;2022-10-04T13:57:59;19.70;96.70
47336;DHT22;33068;51.990;5.926;2022-10-04T14:00:50;19.40;97.70
47336;DHT22;33068;51.990;5.926;2022-10-04T14:03:28;19.60;96.90
47336;DHT22;33068;51.990;5.926;2022-10-04T14:06:25;19.50;97.50
47336;DHT22;33068;51.990;5.926;2022-10-04T14:12:24;19.50;97.80
47336;DHT22;33068;51.990;5.926;2022-10-04T14:18:25;19.40;97.80
47336;DHT22;33068;51.990;5.926;2022-10-04T14:21:17;19.20;98.00
47336;DHT22;33068;51.990;5.926;2022-10-04T14:27:32;19.30;98.70
47336;DHT22;33068;51.990;5.926;2022-10-04T14:30:13;19.10;98.50
47336;DHT22;33068;51.990;5.926;2022-10-04T14:36:07;18.90;99.80
47336;DHT22;33068;51.990;5.926;2022-10-04T14:39:07;18.90;99.90
47336;DHT22;33068;51.990;5.926;2022-10-04T14:41:58;18.70;99.90
47336;DHT22;33068;51.990;5.926;2022-10-04T14:44:56;18.50;99.90
47336;DHT22;33068;51.990;5.926;2022-10-04T14:47:50;18.60;99.90
47336;DHT22;33068;51.990;5.926;2022-10-04T14:50:35;18.60;99.90
47336;DHT22;33068;51.990;5.926;2022-10-04T14:53:19;18.50;99.90
47336;DHT22;33068;51.990;5.926;2022-10-04T14:56:20;18.50;99.90
47336;DHT22;33068;51.990;5.926;2022-10-04T14:59:01;18.50;99.90
47336;DHT22;33068;51.990;5.926;2022-10-04T15:01:30;18.40;99.90
47336;DHT22;33068;51.990;5.926;2022-10-04T15:04:18;18.40;99.90
47336;DHT22;33068;51.990;5.926;2022-10-04T15:06:50;18.50;99.90
47336;DHT22;33068;51.990;5.926;2022-10-04T15:09:29;18.40;99.90
47336;DHT22;33068;51.990;5.926;2022-10-04T15:12:14;18.50;99.90
47336;DHT22;33068;51.990;5.926;2022-10-04T15:15:12;18.60;99.90
47336;DHT22;33068;51.990;5.926;2022-10-04T15:17:55;18.60;99.90
47336;DHT22;33068;51.990;5.926;2022-10-04T15:20:28;18.60;99.90
47336;DHT22;33068;51.990;5.926;2022-10-04T15:23:08;18.60;99.90
47336;DHT22;33068;51.990;5.926;2022-10-04T15:25:42;18.80;99.90
47336;DHT22;33068;51.990;5.926;2022-10-04T15:28:35;18.70;99.90
47336;DHT22;33068;51.990;5.926;2022-10-04T15:31:12;18.70;99.90
47336;DHT22;33068;51.990;5.926;2022-10-04T15:33:53;18.60;99.90
47336;DHT22;33068;51.990;5.926;2022-10-04T15:36:59;18.70;99.90
47336;DHT22;33068;51.990;5.926;2022-10-04T15:42:59;18.50;99.90
47336;DHT22;33068;51.990;5.926;2022-10-04T15:48:27;18.40;99.90
47336;DHT22;33068;51.990;5.926;2022-10-04T15:51:09;18.30;99.90
47336;DHT22;33068;51.990;5.926;2022-10-04T15:54:05;18.20;99.90
47336;DHT22;33068;51.990;5.926;2022-10-04T15:56:47;18.00;99.90
47336;DHT22;33068;51.990;5.926;2022-10-04T15:59:26;17.90;99.90
47336;DHT22;33068;51.990;5.926;2022-10-04T16:02:23;17.80;99.90
47336;DHT22;33068;51.990;5.926;2022-10-04T16:05:06;17.70;99.90
47336;DHT22;33068;51.990;5.926;2022-10-04T16:11:01;17.50;99.90
47336;DHT22;33068;51.990;5.926;2022-10-04T16:16:47;17.20;99.90
47336;DHT22;33068;51.990;5.926;2022-10-04T16:19:35;17.20;99.90
47336;DHT22;33068;51.990;5.926;2022-10-04T16:22:11;17.20;99.90
47336;DHT22;33068;51.990;5.926;2022-10-04T16:24:46;17.20;99.90
47336;DHT22;33068;51.990;5.926;2022-10-04T16:27:44;17.10;99.90
47336;DHT22;33068;51.990;5.926;2022-10-04T16:30:22;17.00;99.90
47336;DHT22;33068;51.990;5.926;2022-10-04T16:33:12;17.00;99.90
47336;DHT22;33068;51.990;5.926;2022-10-04T16:35:50;16.90;99.90
47336;DHT22;33068;51.990;5.926;2022-10-04T16:38:27;16.80;99.90
47336;DHT22;33068;51.990;5.926;2022-10-04T16:41:09;16.80;99.90
47336;DHT22;33068;51.990;5.926;2022-10-04T16:43:48;16.70;99.90
47336;DHT22;33068;51.990;5.926;2022-10-04T16:46:22;16.70;99.90
47336;DHT22;33068;51.990;5.926;2022-10-04T16:48:55;16.60;99.90
47336;DHT22;33068;51.990;5.926;2022-10-04T16:54:39;16.40;99.90
47336;DHT22;33068;51.990;5.926;2022-10-04T16:57:18;16.30;99.90
47336;DHT22;33068;51.990;5.926;2022-10-04T16:59:53;16.20;99.90
47336;DHT22;33068;51.990;5.926;2022-10-04T17:02:32;16.10;99.90
47336;DHT22;33068;51.990;5.926;2022-10-04T17:08:28;15.90;99.90
47336;DHT22;33068;51.990;5.926;2022-10-04T17:14:17;15.70;99.90
47336;DHT22;33068;51.990;5.926;2022-10-04T17:16:52;15.50;99.90
47336;DHT22;33068;51.990;5.926;2022-10-04T17:19:29;15.50;99.90
47336;DHT22;33068;51.990;5.926;2022-10-04T17:22:06;15.40;99.90
47336;DHT22;33068;51.990;5.926;2022-10-04T17:24:58;15.40;99.90
47336;DHT22;33068;51.990;5.926;2022-10-04T17:27:42;15.30;99.90
47336;DHT22;33068;51.990;5.926;2022-10-04T17:30:18;15.30;99.90
47336;DHT22;33068;51.990;5.926;2022-10-04T17:33:03;15.20;99.90
47336;DHT22;33068;51.990;5.926;2022-10-04T17:38:46;15.20;99.90
47336;DHT22;33068;51.990;5.926;2022-10-04T17:41:26;15.30;99.90
47336;DHT22;33068;51.990;5.926;2022-10-04T17:44:17;15.30;99.90
47336;DHT22;33068;51.990;5.926;2022-10-04T17:46:51;15.20;99.90
47336;DHT22;33068;51.990;5.926;2022-10-04T17:49:25;15.20;99.90
47336;DHT22;33068;51.990;5.926;2022-10-04T17:52:15;15.10;99.90
47336;DHT22;33068;51.990;5.926;2022-10-04T17:55:17;15.10;99.90
47336;DHT22;33068;51.990;5.926;2022-10-04T17:57:53;15.00;99.90
47336;DHT22;33068;51.990;5.926;2022-10-04T18:00:23;14.90;99.90
47336;DHT22;33068;51.990;5.926;2022-10-04T18:03:05;14.90;99.90
47336;DHT22;33068;51.990;5.926;2022-10-04T18:05:44;14.90;99.90
47336;DHT22;33068;51.990;5.926;2022-10-04T18:08:17;14.90;99.90
47336;DHT22;33068;51.990;5.926;2022-10-04T18:10:50;14.80;99.90
47336;DHT22;33068;51.990;5.926;2022-10-04T18:13:25;14.80;99.90
47336;DHT22;33068;51.990;5.926;2022-10-04T18:15:59;14.70;99.90
47336;DHT22;33068;51.990;5.926;2022-10-04T18:18:29;14.50;99.90
47336;DHT22;33068;51.990;5.926;2022-10-04T18:21:06;14.70;99.90
47336;DHT22;33068;51.990;5.926;2022-10-04T18:23:52;14.70;99.90
47336;DHT22;33068;51.990;5.926;2022-10-04T18:26:21;14.70;99.90
47336;DHT22;33068;51.990;5.926;2022-10-04T18:28:50;14.70;99.90
47336;DHT22;33068;51.990;5.926;2022-10-04T18:31:29;14.70;99.90
47336;DHT22;33068;51.990;5.926;2022-10-04T18:34:01;14.60;99.90
47336;DHT22;33068;51.990;5.926;2022-10-04T18:36:48;14.60;99.90
47336;DHT22;33068;51.990;5.926;2022-10-04T18:39:19;14.60;99.90
47336;DHT22;33068;51.990;5.926;2022-10-04T18:41:58;14.50;99.90